createdAt,value
2019-01-05T00:02:14.768Z,11.00
2019-01-05T00:05:09.970Z,11.80
2019-01-05T00:08:04.105Z,11.50
2019-01-05T00:10:58.195Z,12.50
2019-01-05T00:13:51.259Z,11.70
2019-01-05T00:16:58.716Z,11.77
2019-01-05T00:19:44.859Z,12.87
2019-01-05T00:22:48.965Z,13.30
2019-01-05T00:25:36.711Z,14.07
2019-01-05T00:28:25.158Z,13.53
2019-01-05T00:31:13.938Z,12.90
2019-01-05T00:34:03.376Z,15.90
2019-01-05T00:36:55.223Z,14.23
2019-01-05T00:39:57.691Z,15.00
2019-01-05T00:42:49.872Z,11.33
2019-01-05T00:45:47.441Z,11.27
2019-01-05T00:48:43.208Z,11.00
2019-01-05T00:51:32.909Z,10.30
2019-01-05T00:54:32.100Z,10.97
2019-01-05T00:57:21.233Z,11.33
2019-01-05T01:00:15.990Z,12.50
2019-01-05T01:03:04.442Z,12.70
2019-01-05T01:05:51.506Z,14.03
2019-01-05T01:08:38.531Z,14.13
2019-01-05T01:11:32.987Z,12.60
2019-01-05T01:14:19.996Z,13.70
2019-01-05T01:17:04.397Z,13.00
2019-01-05T01:19:58.975Z,12.80
2019-01-05T01:22:48.095Z,12.10
2019-01-05T01:25:45.716Z,12.20
2019-01-05T01:28:43.305Z,12.27
2019-01-05T01:31:46.270Z,12.67
2019-01-05T01:34:33.613Z,12.07
2019-01-05T01:37:25.251Z,11.13
2019-01-05T01:40:33.286Z,11.93
2019-01-05T01:43:21.722Z,11.30
2019-01-05T01:46:06.313Z,12.43
2019-01-05T01:48:55.222Z,12.83
2019-01-05T01:51:42.559Z,12.17
2019-01-05T01:54:36.620Z,11.97
2019-01-05T01:57:29.953Z,12.13
2019-01-05T02:00:33.900Z,10.87
2019-01-05T02:03:28.175Z,11.17
2019-01-05T02:06:29.076Z,12.20
2019-01-05T02:09:17.753Z,11.63
2019-01-05T02:12:19.472Z,11.63
2019-01-05T02:15:19.889Z,11.63
2019-01-05T02:18:53.092Z,11.17
2019-01-05T02:22:26.137Z,11.03
2019-01-05T02:26:13.317Z,11.73
2019-01-05T02:29:27.139Z,13.30
2019-01-05T02:32:55.152Z,13.13
2019-01-05T02:36:31.500Z,13.27
2019-01-05T02:40:18.469Z,14.10
2019-01-05T02:43:59.746Z,13.17
2019-01-05T02:47:11.275Z,13.57
2019-01-05T02:50:39.439Z,13.33
2019-01-05T02:54:05.715Z,12.73
2019-01-05T02:57:40.595Z,17.87
2019-01-05T03:01:16.709Z,15.47
2019-01-05T03:04:36.208Z,15.20
2019-01-05T03:07:58.214Z,16.07
2019-01-05T03:11:27.751Z,16.63
2019-01-05T03:15:03.461Z,16.27
2019-01-05T03:18:27.067Z,16.87
2019-01-05T03:21:37.308Z,15.93
2019-01-05T03:25:18.742Z,14.43
2019-01-05T03:29:01.163Z,13.07
2019-01-05T03:32:26.258Z,12.03
2019-01-05T03:35:50.169Z,15.90
2019-01-05T03:39:39.726Z,15.33
2019-01-05T03:43:36.260Z,14.70
2019-01-05T03:47:25.788Z,13.70
2019-01-05T03:51:00.700Z,14.37
2019-01-05T03:54:23.383Z,13.13
2019-01-05T03:57:53.549Z,11.33
2019-01-05T04:01:25.175Z,11.43
2019-01-05T04:05:20.003Z,10.20
2019-01-05T04:09:00.759Z,9.70
2019-01-05T04:12:30.527Z,9.63
2019-01-05T04:16:01.085Z,10.00
2019-01-05T04:19:25.748Z,9.67
2019-01-05T04:22:48.955Z,9.83
2019-01-05T04:26:16.141Z,9.20
2019-01-05T04:29:50.013Z,9.07
2019-01-05T04:33:13.304Z,9.23
2019-01-05T04:36:46.826Z,9.90
2019-01-05T04:40:12.168Z,9.97
2019-01-05T04:44:06.102Z,10.20
2019-01-05T04:47:43.103Z,11.53
2019-01-05T04:51:26.210Z,11.70
2019-01-05T04:55:14.254Z,11.50
2019-01-05T04:59:04.598Z,11.70
2019-01-05T05:02:42.076Z,10.43
2019-01-05T05:06:20.359Z,10.13
2019-01-05T05:09:43.242Z,9.70
2019-01-05T05:13:13.202Z,10.20
2019-01-05T05:17:01.499Z,9.30
2019-01-05T05:20:04.975Z,10.03
2019-01-05T05:23:20.718Z,11.20
2019-01-05T05:26:45.848Z,11.77
2019-01-05T05:30:05.181Z,12.63
2019-01-05T05:33:59.362Z,13.63
2019-01-05T05:37:33.571Z,14.60
2019-01-05T05:40:51.794Z,13.17
2019-01-05T05:44:07.912Z,12.80
2019-01-05T05:47:22.885Z,11.83
2019-01-05T05:50:51.523Z,11.60
2019-01-05T05:54:27.690Z,10.47
2019-01-05T05:57:57.252Z,10.60
2019-01-05T06:01:35.838Z,10.93
2019-01-05T06:05:03.966Z,11.50
2019-01-05T06:08:43.570Z,11.17
2019-01-05T06:12:07.407Z,11.07
2019-01-05T06:15:32.497Z,10.73
2019-01-05T06:18:48.690Z,10.03
2019-01-05T06:21:39.825Z,9.90
2019-01-05T06:25:07.532Z,9.17
2019-01-05T06:28:44.010Z,10.33
2019-01-05T06:32:26.995Z,9.80
2019-01-05T06:35:44.685Z,9.77
2019-01-05T06:39:19.983Z,9.33
2019-01-05T06:43:10.423Z,8.57
2019-01-05T06:46:55.638Z,8.40
2019-01-05T06:50:18.782Z,8.83
2019-01-05T06:54:06.791Z,11.97
2019-01-05T06:57:31.669Z,13.50
2019-01-05T07:00:54.422Z,14.67
2019-01-05T07:04:27.059Z,13.70
2019-01-05T07:08:03.019Z,12.83
2019-01-05T07:11:39.137Z,12.43
2019-01-05T07:15:26.037Z,14.57
2019-01-05T07:19:12.027Z,19.93
2019-01-05T07:22:33.206Z,16.90
2019-01-05T07:26:22.320Z,14.47
2019-01-05T07:30:01.518Z,13.80
2019-01-05T07:33:38.919Z,13.13
2019-01-05T07:36:49.212Z,12.50
2019-01-05T07:40:27.612Z,14.37
2019-01-05T07:44:01.891Z,21.03
2019-01-05T07:47:28.757Z,20.73
2019-01-05T07:51:26.012Z,19.30
2019-01-05T07:55:09.520Z,14.97
2019-01-05T07:58:32.527Z,19.13
2019-01-05T08:02:01.328Z,15.33
2019-01-05T08:05:51.550Z,14.03
2019-01-05T08:09:11.329Z,97.47
2019-01-05T08:12:56.875Z,32.73
2019-01-05T08:16:23.729Z,27.03
2019-01-05T08:19:51.511Z,31.43
2019-01-05T08:23:26.653Z,23.37
2019-01-05T08:26:55.443Z,15.60
2019-01-05T08:30:45.263Z,15.53
2019-01-05T08:34:04.344Z,13.20
2019-01-05T08:37:23.486Z,15.90
2019-01-05T08:41:19.812Z,13.57
2019-01-05T08:44:46.011Z,18.63
2019-01-05T08:48:07.739Z,16.30
2019-01-05T08:51:40.383Z,14.40
2019-01-05T08:55:04.511Z,14.47
2019-01-05T08:58:45.656Z,15.90
2019-01-05T09:02:20.598Z,15.87
2019-01-05T09:05:52.128Z,15.60
2019-01-05T09:09:26.349Z,19.27
2019-01-05T09:12:49.056Z,24.80
2019-01-05T09:16:24.177Z,24.03
2019-01-05T09:20:04.016Z,23.47
2019-01-05T09:23:32.225Z,19.90
2019-01-05T09:27:20.481Z,25.10
2019-01-05T09:30:54.470Z,22.03
2019-01-05T09:34:22.189Z,22.73
2019-01-05T09:38:10.543Z,20.97
2019-01-05T09:41:49.654Z,15.97
2019-01-05T09:45:07.178Z,19.93
2019-01-05T09:48:40.327Z,18.70
2019-01-05T09:52:07.684Z,16.33
2019-01-05T09:55:50.362Z,17.60
2019-01-05T09:59:05.817Z,22.60
2019-01-05T10:02:30.758Z,17.50
2019-01-05T10:05:58.252Z,56.30
2019-01-05T10:09:37.499Z,27.20
2019-01-05T10:13:02.457Z,29.73
2019-01-05T10:16:33.782Z,21.37
2019-01-05T10:20:20.000Z,19.30
2019-01-05T10:23:53.899Z,21.40
2019-01-05T10:27:37.260Z,20.80
2019-01-05T10:31:17.607Z,23.03
2019-01-05T10:34:47.620Z,24.40
2019-01-05T10:38:01.964Z,25.63
2019-01-05T10:41:32.593Z,25.57
2019-01-05T10:44:53.860Z,23.47
2019-01-05T10:48:36.051Z,21.17
2019-01-05T10:52:10.450Z,19.80
2019-01-05T10:55:41.281Z,17.33
2019-01-05T10:59:12.441Z,22.10
2019-01-05T11:02:38.737Z,28.57
2019-01-05T11:06:07.092Z,29.40
2019-01-05T11:09:56.721Z,27.67
2019-01-05T11:13:36.597Z,31.33
2019-01-05T11:17:11.182Z,28.57
2019-01-05T11:20:48.221Z,27.47
2019-01-05T11:24:05.792Z,23.70
2019-01-05T11:27:45.315Z,22.27
2019-01-05T11:31:22.736Z,26.00
2019-01-05T11:34:58.219Z,23.83
2019-01-05T11:38:33.051Z,22.47
2019-01-05T11:42:16.537Z,22.37
2019-01-05T11:46:09.401Z,26.47
2019-01-05T11:49:43.148Z,25.70
2019-01-05T11:53:35.254Z,42.17
2019-01-05T11:57:03.790Z,26.27
2019-01-05T12:00:36.581Z,33.27
2019-01-05T12:04:00.578Z,27.87
2019-01-05T12:07:49.507Z,28.47
2019-01-05T12:11:32.473Z,28.47
2019-01-05T12:15:16.102Z,27.10
2019-01-05T12:18:40.583Z,29.37
2019-01-05T12:22:21.127Z,91.30
2019-01-05T12:25:49.586Z,33.27
2019-01-05T12:29:17.599Z,28.20
2019-01-05T12:32:38.853Z,34.23
2019-01-05T12:36:22.103Z,27.97
2019-01-05T12:39:45.969Z,29.00
2019-01-05T12:43:23.187Z,43.20
2019-01-05T12:46:58.174Z,29.63
2019-01-05T12:50:23.925Z,31.53
2019-01-05T12:53:54.599Z,29.37
2019-01-05T12:57:25.842Z,30.10
2019-01-05T13:00:48.053Z,30.27
2019-01-05T13:04:26.945Z,42.83
2019-01-05T13:07:51.483Z,32.97
2019-01-05T13:11:30.038Z,33.10
2019-01-05T13:15:25.134Z,33.67
2019-01-05T13:18:48.240Z,40.27
2019-01-05T13:22:17.854Z,37.30
2019-01-05T13:25:51.852Z,32.67
2019-01-05T13:29:34.937Z,43.47
2019-01-05T13:33:11.135Z,37.77
2019-01-05T13:36:45.144Z,33.67
2019-01-05T13:40:39.063Z,33.73
2019-01-05T13:44:05.337Z,31.90
2019-01-05T13:47:28.245Z,32.60
2019-01-05T13:51:05.905Z,32.40
2019-01-05T13:54:07.956Z,31.03
2019-01-05T13:57:14.849Z,30.80
2019-01-05T14:00:12.155Z,34.67
2019-01-05T14:03:17.559Z,32.50
2019-01-05T14:06:21.003Z,31.57
2019-01-05T14:09:08.245Z,31.63
2019-01-05T14:12:08.659Z,30.63
2019-01-05T14:14:55.589Z,29.67
2019-01-05T14:17:41.456Z,30.07
2019-01-05T14:20:29.872Z,32.90
2019-01-05T14:23:16.866Z,30.00
2019-01-05T14:26:03.959Z,42.20
2019-01-05T14:29:07.455Z,42.33
2019-01-05T14:31:54.570Z,36.20
2019-01-05T14:34:42.947Z,36.53
2019-01-05T14:37:34.283Z,32.43
2019-01-05T14:40:22.656Z,32.27
2019-01-05T14:43:09.577Z,33.37
2019-01-05T14:46:06.977Z,47.03
2019-01-05T14:48:55.361Z,45.07
2019-01-05T14:51:49.693Z,41.60
2019-01-05T14:54:36.635Z,34.10
2019-01-05T14:57:37.067Z,34.17
2019-01-05T15:00:28.701Z,34.27
2019-01-05T15:03:19.778Z,36.17
2019-01-05T15:06:20.370Z,35.50
2019-01-05T15:09:08.361Z,36.57
2019-01-05T15:12:07.791Z,34.67
2019-01-05T15:14:57.346Z,36.47
2019-01-05T15:17:47.035Z,37.00
2019-01-05T15:20:34.047Z,37.73
2019-01-05T15:23:40.672Z,40.07
2019-01-05T15:26:31.592Z,39.67
2019-01-05T15:29:25.801Z,38.93
2019-01-05T15:32:09.585Z,37.93
2019-01-05T15:35:00.655Z,38.20
2019-01-05T15:38:01.058Z,38.67
2019-01-05T15:40:55.287Z,41.00
2019-01-05T15:43:43.746Z,42.33
2019-01-05T15:46:30.922Z,43.83
2019-01-05T15:49:28.124Z,46.73
2019-01-05T15:52:22.036Z,46.97
2019-01-05T15:55:22.304Z,54.03
2019-01-05T15:58:25.893Z,91.80
2019-01-05T16:01:22.993Z,60.27
2019-01-05T16:04:09.970Z,49.20
2019-01-05T16:07:04.270Z,46.37
2019-01-05T16:09:51.458Z,66.30
2019-01-05T16:12:38.473Z,59.53
2019-01-05T16:15:44.923Z,57.27
2019-01-05T16:18:39.059Z,57.03
2019-01-05T16:21:30.276Z,54.60
2019-01-05T16:24:20.703Z,52.73
2019-01-05T16:27:09.113Z,52.77
2019-01-05T16:29:57.431Z,53.23
2019-01-05T16:32:57.780Z,58.33
2019-01-05T16:35:44.748Z,65.83
2019-01-05T16:38:42.067Z,57.27
2019-01-05T16:41:29.045Z,54.93
2019-01-05T16:44:19.028Z,56.23
2019-01-05T16:47:10.003Z,57.17
2019-01-05T16:49:54.482Z,59.07
2019-01-05T16:52:41.342Z,56.37
2019-01-05T16:55:28.237Z,56.70
2019-01-05T16:58:15.210Z,57.53
2019-01-05T17:01:01.319Z,62.13
2019-01-05T17:03:52.450Z,76.77
2019-01-05T17:06:53.467Z,73.00
2019-01-05T17:09:56.925Z,75.23
2019-01-05T17:12:43.858Z,74.00
2019-01-05T17:15:50.326Z,79.57
2019-01-05T17:18:37.176Z,99.47
2019-01-05T17:21:24.132Z,98.77
2019-01-05T17:24:10.994Z,91.20
2019-01-05T17:27:17.399Z,81.37
2019-01-05T17:30:12.681Z,70.03
2019-01-05T17:32:59.582Z,67.50
2019-01-05T17:35:46.579Z,75.37
2019-01-05T17:38:33.443Z,67.40
2019-01-05T17:41:21.876Z,63.17
2019-01-05T17:44:08.799Z,65.40
2019-01-05T17:46:59.292Z,71.77
2019-01-05T17:49:44.198Z,71.67
2019-01-05T17:52:31.154Z,72.17
2019-01-05T17:55:29.996Z,67.93
2019-01-05T17:58:24.258Z,69.50
2019-01-05T18:01:27.712Z,68.13
2019-01-05T18:04:14.849Z,67.03
2019-01-05T18:07:01.774Z,66.07
2019-01-05T18:09:50.122Z,65.70
2019-01-05T18:12:47.487Z,63.63
2019-01-05T18:15:42.006Z,64.13
2019-01-05T18:18:29.018Z,68.13
2019-01-05T18:21:20.357Z,74.93
2019-01-05T18:24:07.258Z,69.27
2019-01-05T18:26:54.326Z,62.47
2019-01-05T18:29:42.639Z,58.33
2019-01-05T18:32:29.823Z,57.30
2019-01-05T18:35:30.181Z,56.63
2019-01-05T18:38:36.447Z,52.83
2019-01-05T18:41:24.733Z,59.07
2019-01-05T18:44:28.461Z,59.00
2019-01-05T18:47:22.661Z,56.87
2019-01-05T18:50:14.271Z,53.47
2019-01-05T18:53:02.631Z,53.07
2019-01-05T18:55:52.690Z,46.57
2019-01-05T18:58:43.766Z,44.03
2019-01-05T19:01:30.913Z,44.23
2019-01-05T19:04:13.776Z,41.07
2019-01-05T19:07:11.124Z,47.53
2019-01-05T19:10:05.613Z,110.40
2019-01-05T19:12:56.937Z,74.57
2019-01-05T19:15:48.273Z,57.23
2019-01-05T19:18:51.725Z,50.57
2019-01-05T19:21:42.740Z,40.13
2019-01-05T19:24:49.263Z,39.40
2019-01-05T19:27:36.169Z,37.77
2019-01-05T19:30:28.577Z,39.83
2019-01-05T19:33:18.575Z,34.60
2019-01-05T19:36:06.950Z,36.57
2019-01-05T19:38:52.670Z,35.33
2019-01-05T19:41:44.367Z,33.03
2019-01-05T19:44:39.920Z,32.83
2019-01-05T19:47:37.368Z,34.50
2019-01-05T19:50:31.294Z,33.87
2019-01-05T19:53:18.352Z,33.37
2019-01-05T19:56:12.597Z,36.13
2019-01-05T19:58:59.583Z,35.60
2019-01-05T20:01:53.881Z,36.33
2019-01-05T20:04:54.332Z,36.53
2019-01-05T20:07:46.144Z,37.53
2019-01-05T20:10:32.298Z,40.60
2019-01-05T20:13:19.322Z,45.30
2019-01-05T20:16:06.120Z,61.73
2019-01-05T20:18:57.286Z,42.73
2019-01-05T20:21:44.407Z,41.90
2019-01-05T20:24:31.373Z,42.93
2019-01-05T20:27:18.180Z,46.70
2019-01-05T20:30:14.783Z,66.23
2019-01-05T20:33:12.173Z,84.57
2019-01-05T20:36:15.502Z,75.90
2019-01-05T20:39:06.547Z,56.23
2019-01-05T20:42:03.457Z,44.80
2019-01-05T20:44:50.680Z,71.23
2019-01-05T20:47:33.300Z,81.70
2019-01-05T20:50:20.586Z,75.40
2019-01-05T20:53:17.947Z,63.00
2019-01-05T20:56:04.850Z,57.67
2019-01-05T20:58:51.799Z,53.73
2019-01-05T21:01:38.650Z,51.13
2019-01-05T21:04:44.964Z,50.30
2019-01-05T21:07:48.940Z,53.77
2019-01-05T21:10:36.629Z,43.97
2019-01-05T21:13:40.105Z,42.27
2019-01-05T21:16:26.523Z,40.63
2019-01-05T21:19:13.433Z,39.77
2019-01-05T21:22:07.715Z,38.10
2019-01-05T21:24:58.897Z,37.00
2019-01-05T21:27:46.108Z,36.53
2019-01-05T21:30:37.412Z,34.40
2019-01-05T21:33:27.567Z,33.80
2019-01-05T21:36:25.135Z,34.63
2019-01-05T21:39:19.180Z,36.20
2019-01-05T21:42:22.618Z,39.43
2019-01-05T21:45:20.041Z,39.67
2019-01-05T21:48:11.015Z,39.73
2019-01-05T21:51:02.273Z,39.43
2019-01-05T21:54:05.757Z,35.40
2019-01-05T21:56:52.481Z,40.83
2019-01-05T21:59:39.468Z,41.50
2019-01-05T22:02:26.358Z,38.03
2019-01-05T22:05:29.831Z,35.90
2019-01-05T22:08:18.181Z,37.40
2019-01-05T22:11:18.527Z,38.77
2019-01-05T22:14:06.798Z,36.90
2019-01-05T22:16:55.129Z,35.00
2019-01-05T22:19:52.291Z,31.07
2019-01-05T22:22:52.400Z,29.60
2019-01-05T22:25:40.785Z,32.20
2019-01-05T22:28:29.203Z,33.63
2019-01-05T22:31:29.648Z,31.80
2019-01-05T22:34:36.189Z,29.43
2019-01-05T22:37:30.060Z,30.93
2019-01-05T22:40:24.148Z,31.43
2019-01-05T22:43:09.385Z,30.50
2019-01-05T22:45:57.827Z,32.50
2019-01-05T22:48:46.190Z,32.30
2019-01-05T22:51:33.160Z,33.33
2019-01-05T22:54:21.462Z,36.83
2019-01-05T22:57:09.203Z,36.13
2019-01-05T22:59:56.357Z,33.43
2019-01-05T23:02:43.234Z,29.03
2019-01-05T23:05:34.431Z,29.43
2019-01-05T23:08:19.014Z,28.27
2019-01-05T23:11:05.820Z,26.57
2019-01-05T23:13:54.155Z,24.83
2019-01-05T23:16:48.327Z,25.87
2019-01-05T23:19:35.464Z,26.10
2019-01-05T23:22:41.839Z,27.13
2019-01-05T23:25:42.291Z,25.87
2019-01-05T23:28:29.096Z,28.53
2019-01-05T23:31:19.099Z,30.70
2019-01-05T23:34:10.111Z,28.53
2019-01-05T23:37:01.247Z,26.97
2019-01-05T23:39:55.596Z,24.43
2019-01-05T23:42:42.524Z,24.90
2019-01-05T23:45:29.557Z,23.57
2019-01-05T23:48:16.454Z,23.80
2019-01-05T23:51:04.752Z,24.00
2019-01-05T23:53:52.771Z,22.47
2019-01-05T23:56:39.655Z,20.77
2019-01-05T23:59:39.975Z,20.27
